createdAt,value
2022-10-05T00:02:25.570Z,101093.63
2022-10-05T00:05:29.669Z,101098.28
2022-10-05T00:08:26.286Z,101103.72
2022-10-05T00:11:21.157Z,101100.97
2022-10-05T00:14:23.170Z,101102.09
2022-10-05T00:17:21.831Z,101102.00
2022-10-05T00:20:23.828Z,101099.06
2022-10-05T00:23:23.032Z,101098.44
2022-10-05T00:26:24.692Z,101100.25
2022-10-05T00:29:24.181Z,101097.53
2022-10-05T00:32:14.769Z,101101.94
2022-10-05T00:35:04.617Z,101101.84
2022-10-05T00:37:56.647Z,101111.88
2022-10-05T00:40:51.632Z,101106.78
2022-10-05T00:44:04.714Z,101102.31
2022-10-05T00:47:22.434Z,101099.97
2022-10-05T00:50:39.089Z,101102.03
2022-10-05T00:53:49.520Z,101111.16
2022-10-05T00:57:08.173Z,101106.03
2022-10-05T01:00:18.459Z,101111.69
2022-10-05T01:03:42.414Z,101107.44
2022-10-05T01:06:39.835Z,101106.94
2022-10-05T01:09:35.989Z,101103.34
2022-10-05T01:13:16.788Z,101110.13
2022-10-05T01:16:17.139Z,101107.53
2022-10-05T01:19:19.821Z,101109.31
2022-10-05T01:22:49.194Z,101108.22
2022-10-05T01:26:14.127Z,101106.25
2022-10-05T01:29:41.110Z,101107.84
2022-10-05T01:32:44.647Z,101097.78
2022-10-05T01:35:55.465Z,101094.88
2022-10-05T01:39:06.734Z,101097.34
2022-10-05T01:43:03.888Z,101101.94
2022-10-05T01:46:20.714Z,101100.91
2022-10-05T01:49:35.400Z,101098.63
2022-10-05T01:52:51.383Z,101109.16
2022-10-05T01:56:06.012Z,101093.19
2022-10-05T01:59:20.614Z,101092.53
2022-10-05T02:02:14.537Z,101090.34
2022-10-05T02:05:17.525Z,101094.47
2022-10-05T02:08:40.772Z,101092.91
2022-10-05T02:11:30.512Z,101098.47
2022-10-05T02:14:24.946Z,101106.28
2022-10-05T02:17:30.612Z,101099.84
2022-10-05T02:20:27.313Z,101091.31
2022-10-05T02:23:22.852Z,101080.53
2022-10-05T02:26:14.027Z,101076.09
2022-10-05T02:29:11.075Z,101065.03
2022-10-05T02:32:15.873Z,101054.94
2022-10-05T02:35:16.286Z,101047.97
2022-10-05T02:38:20.335Z,101049.81
2022-10-05T02:41:33.321Z,101048.28
2022-10-05T02:44:32.948Z,101031.28
2022-10-05T02:47:31.478Z,101024.22
2022-10-05T02:50:47.194Z,101019.38
2022-10-05T02:53:40.338Z,101010.63
2022-10-05T02:56:45.930Z,101002.34
2022-10-05T02:59:49.666Z,101005.06
2022-10-05T03:02:59.306Z,101003.59
2022-10-05T03:06:07.487Z,101003.38
2022-10-05T03:09:05.235Z,101000.03
2022-10-05T03:12:16.585Z,100996.28
2022-10-05T03:15:47.497Z,100996.75
2022-10-05T03:19:07.926Z,100986.09
2022-10-05T03:22:06.806Z,100974.00
2022-10-05T03:25:40.313Z,100970.25
2022-10-05T03:29:00.055Z,100980.25
2022-10-05T03:32:07.812Z,100968.56
2022-10-05T03:35:16.578Z,100961.13
2022-10-05T03:38:15.985Z,100961.09
2022-10-05T03:41:14.821Z,100953.19
2022-10-05T03:44:34.079Z,100942.44
2022-10-05T03:47:38.156Z,100931.63
2022-10-05T03:51:04.344Z,100928.34
2022-10-05T03:54:04.693Z,100928.75
2022-10-05T03:57:04.179Z,100924.38
2022-10-05T04:00:07.987Z,100921.91
2022-10-05T04:03:33.565Z,100915.94
2022-10-05T04:06:29.596Z,100911.56
2022-10-05T04:09:28.580Z,100902.63
2022-10-05T04:12:26.156Z,100902.22
2022-10-05T04:15:53.807Z,100897.63
2022-10-05T04:19:07.554Z,100891.78
2022-10-05T04:22:10.695Z,100884.28
2022-10-05T04:25:22.981Z,100883.00
2022-10-05T04:28:44.399Z,100874.66
2022-10-05T04:32:12.483Z,100873.16
2022-10-05T04:35:19.881Z,100870.88
2022-10-05T04:38:38.182Z,100876.25
2022-10-05T04:42:01.894Z,100873.31
2022-10-05T04:44:59.454Z,100859.97
2022-10-05T04:47:59.383Z,100859.53
2022-10-05T04:51:07.875Z,100865.78
2022-10-05T04:54:17.561Z,100864.13
2022-10-05T04:57:29.115Z,100859.75
2022-10-05T05:00:26.923Z,100853.28
2022-10-05T05:03:47.458Z,100835.34
2022-10-05T05:06:40.084Z,100834.91
2022-10-05T05:09:50.566Z,100824.84
2022-10-05T05:13:01.283Z,100827.56
2022-10-05T05:16:14.736Z,100818.59
2022-10-05T05:19:46.167Z,100821.50
2022-10-05T05:22:48.258Z,100820.84
2022-10-05T05:26:06.470Z,100817.50
2022-10-05T05:29:33.238Z,100803.56
2022-10-05T05:32:48.303Z,100806.03
2022-10-05T05:35:57.474Z,100805.63
2022-10-05T05:39:25.204Z,100803.56
2022-10-05T05:42:55.259Z,100799.63
2022-10-05T05:46:07.792Z,100797.97
2022-10-05T05:48:59.773Z,100791.94
2022-10-05T05:52:11.534Z,100795.72
2022-10-05T05:55:08.306Z,100795.06
2022-10-05T05:58:24.069Z,100799.91
2022-10-05T06:01:34.237Z,100795.53
2022-10-05T06:04:42.946Z,100783.88
2022-10-05T06:07:34.211Z,100786.16
2022-10-05T06:10:28.587Z,100781.34
2022-10-05T06:13:42.774Z,100782.56
2022-10-05T06:16:52.452Z,100780.06
2022-10-05T06:19:43.621Z,100773.19
2022-10-05T06:22:46.064Z,100770.25
2022-10-05T06:25:39.848Z,100765.25
2022-10-05T06:28:31.832Z,100763.97
2022-10-05T06:32:03.798Z,100760.03
2022-10-05T06:35:23.403Z,100742.72
2022-10-05T06:38:36.852Z,100747.63
2022-10-05T06:42:02.829Z,100752.19
2022-10-05T06:45:55.094Z,100759.63
2022-10-05T06:49:18.649Z,100763.53
2022-10-05T06:52:42.537Z,100777.44
2022-10-05T06:56:22.872Z,100782.84
2022-10-05T07:00:03.185Z,100787.81
2022-10-05T07:03:00.056Z,100789.00
2022-10-05T07:05:53.800Z,100794.63
2022-10-05T07:09:10.616Z,100785.66
2022-10-05T07:12:24.496Z,100791.69
2022-10-05T07:15:23.747Z,100786.00
2022-10-05T07:18:50.552Z,100769.75
2022-10-05T07:22:24.613Z,100783.69
2022-10-05T07:25:30.660Z,100779.72
2022-10-05T07:28:26.969Z,100777.25
2022-10-05T07:31:34.992Z,100776.84
2022-10-05T07:34:27.182Z,100775.56
2022-10-05T07:37:46.640Z,100773.78
2022-10-05T07:40:58.429Z,100768.63
2022-10-05T07:44:03.043Z,100776.09
2022-10-05T07:47:12.992Z,100766.16
2022-10-05T07:50:30.533Z,100775.78
2022-10-05T07:54:10.335Z,100780.78
2022-10-05T07:57:19.705Z,100785.81
2022-10-05T08:00:22.129Z,100774.56
2022-10-05T08:03:25.765Z,100781.66
2022-10-05T08:06:41.997Z,100787.53
2022-10-05T08:09:55.568Z,100780.47
2022-10-05T08:13:10.074Z,100766.28
2022-10-05T08:16:06.428Z,100762.56
2022-10-05T08:19:02.043Z,100760.47
2022-10-05T08:22:23.001Z,100764.22
2022-10-05T08:25:31.166Z,100766.75
2022-10-05T08:28:35.681Z,100766.94
2022-10-05T08:31:42.987Z,100757.56
2022-10-05T08:34:48.151Z,100766.53
2022-10-05T08:37:42.128Z,100774.66
2022-10-05T08:40:37.993Z,100778.81
2022-10-05T08:43:56.061Z,100783.81
2022-10-05T08:47:21.136Z,100776.72
2022-10-05T08:50:41.920Z,100780.06
2022-10-05T08:53:40.466Z,100784.63
2022-10-05T08:56:57.087Z,100773.63
2022-10-05T09:00:08.197Z,100772.75
2022-10-05T09:03:18.142Z,100774.25
2022-10-05T09:06:24.196Z,100768.38
2022-10-05T09:09:50.615Z,100767.97
2022-10-05T09:12:50.840Z,100770.03
2022-10-05T09:16:18.080Z,100770.84
2022-10-05T09:19:43.069Z,100765.44
2022-10-05T09:22:59.167Z,100769.81
2022-10-05T09:25:59.888Z,100780.00
2022-10-05T09:29:08.193Z,100786.63
2022-10-05T09:32:14.221Z,100799.88
2022-10-05T09:35:10.456Z,100794.50
2022-10-05T09:38:16.026Z,100796.81
2022-10-05T09:41:32.750Z,100799.09
2022-10-05T09:45:00.240Z,100799.72
2022-10-05T09:48:21.234Z,100802.19
2022-10-05T09:51:30.430Z,100806.50
2022-10-05T09:54:33.063Z,100811.50
2022-10-05T09:57:36.934Z,100807.75
2022-10-05T10:00:50.095Z,100817.72
2022-10-05T10:03:59.550Z,100817.22
2022-10-05T10:06:52.689Z,100825.16
2022-10-05T10:10:08.126Z,100818.22
2022-10-05T10:13:31.946Z,100827.22
2022-10-05T10:16:32.076Z,100829.25
2022-10-05T10:19:33.334Z,100838.41
2022-10-05T10:23:04.584Z,100840.06
2022-10-05T10:26:36.628Z,100846.06
2022-10-05T10:29:44.861Z,100856.63
2022-10-05T10:32:35.290Z,100861.84
2022-10-05T10:36:06.038Z,100878.72
2022-10-05T10:39:14.787Z,100892.78
2022-10-05T10:42:11.832Z,100904.06
2022-10-05T10:45:26.694Z,100913.59
2022-10-05T10:48:21.435Z,100916.06
2022-10-05T10:51:33.096Z,100917.34
2022-10-05T10:54:33.452Z,100928.53
2022-10-05T10:57:48.190Z,100947.28
2022-10-05T11:01:24.182Z,100948.50
2022-10-05T11:04:55.093Z,100954.28
2022-10-05T11:08:16.781Z,100962.59
2022-10-05T11:11:11.684Z,100961.50
2022-10-05T11:14:13.226Z,100962.50
2022-10-05T11:17:30.465Z,100967.75
2022-10-05T11:20:44.186Z,100969.97
2022-10-05T11:24:10.025Z,100975.00
2022-10-05T11:27:17.801Z,100980.16
2022-10-05T11:30:36.295Z,100993.66
2022-10-05T11:34:01.908Z,101004.69
2022-10-05T11:37:21.986Z,100999.81
2022-10-05T11:40:35.143Z,100995.28
2022-10-05T11:43:34.082Z,100995.81
2022-10-05T11:46:48.860Z,101004.31
2022-10-05T11:50:07.546Z,101012.69
2022-10-05T11:53:38.697Z,101023.44
2022-10-05T11:56:55.731Z,101032.56
2022-10-05T12:00:11.818Z,101036.28
2022-10-05T12:03:38.203Z,101048.09
2022-10-05T12:07:13.632Z,101041.28
2022-10-05T12:10:27.400Z,101038.19
2022-10-05T12:13:29.007Z,101052.75
2022-10-05T12:16:39.722Z,101053.13
2022-10-05T12:19:45.926Z,101054.34
2022-10-05T12:22:51.987Z,101059.25
2022-10-05T12:25:54.848Z,101059.63
2022-10-05T12:28:51.187Z,101063.34
2022-10-05T12:31:53.279Z,101067.28
2022-10-05T12:35:01.425Z,101075.38
2022-10-05T12:38:20.582Z,101083.78
2022-10-05T12:41:30.338Z,101093.63
2022-10-05T12:44:36.992Z,101087.41
2022-10-05T12:47:41.407Z,101079.94
2022-10-05T12:50:49.294Z,101067.09
2022-10-05T12:54:19.691Z,101060.00
2022-10-05T12:57:19.655Z,101056.66
2022-10-05T13:00:23.115Z,101064.38
2022-10-05T13:03:41.083Z,101058.31
2022-10-05T13:06:44.069Z,101061.16
2022-10-05T13:10:17.480Z,101066.19
2022-10-05T13:13:24.604Z,101055.09
2022-10-05T13:16:22.879Z,101057.41
2022-10-05T13:19:26.148Z,101060.78
2022-10-05T13:22:42.218Z,101061.50
2022-10-05T13:25:45.496Z,101062.72
2022-10-05T13:28:46.035Z,101057.50
2022-10-05T13:31:46.860Z,101058.53
2022-10-05T13:34:55.123Z,101054.53
2022-10-05T13:38:29.762Z,101052.75
2022-10-05T13:41:36.959Z,101043.72
2022-10-05T13:44:49.097Z,101050.16
2022-10-05T13:47:54.768Z,101057.59
2022-10-05T13:51:05.334Z,101063.00
2022-10-05T13:54:08.805Z,101058.97
2022-10-05T13:57:22.305Z,101065.84
2022-10-05T14:00:27.380Z,101081.03
2022-10-05T14:03:34.322Z,101070.81
2022-10-05T14:06:31.897Z,101062.69
2022-10-05T14:09:27.986Z,101061.06
2022-10-05T14:12:25.113Z,101077.25
2022-10-05T14:15:24.572Z,101073.53
2022-10-05T14:18:32.549Z,101069.25
2022-10-05T14:21:28.991Z,101076.25
2022-10-05T14:24:42.752Z,101062.75
2022-10-05T14:27:37.974Z,101057.06
2022-10-05T14:30:31.929Z,101057.06
2022-10-05T14:33:32.295Z,101048.59
2022-10-05T14:36:44.980Z,101045.03
2022-10-05T14:39:36.526Z,101038.91
2022-10-05T14:42:31.030Z,101050.16
2022-10-05T14:45:33.110Z,101052.38
2022-10-05T14:48:24.035Z,101045.13
2022-10-05T14:51:33.001Z,101028.81
2022-10-05T14:54:40.387Z,101033.63
2022-10-05T14:57:40.211Z,101018.63
2022-10-05T15:00:34.943Z,101003.50
2022-10-05T15:03:37.450Z,101003.81
2022-10-05T15:06:42.117Z,100986.22
2022-10-05T15:09:55.766Z,100979.97
2022-10-05T15:12:49.461Z,100992.06
2022-10-05T15:16:02.735Z,100987.91
2022-10-05T15:19:28.684Z,100995.34
2022-10-05T15:22:26.258Z,100994.47
2022-10-05T15:25:18.758Z,100986.59
2022-10-05T15:28:17.507Z,100978.66
2022-10-05T15:31:25.552Z,100992.63
2022-10-05T15:34:28.983Z,100989.28
2022-10-05T15:37:25.276Z,100999.59
2022-10-05T15:40:29.457Z,100995.72
2022-10-05T15:43:24.166Z,100988.78
2022-10-05T15:46:23.009Z,100997.75
2022-10-05T15:49:30.031Z,100986.31
2022-10-05T15:52:39.982Z,100985.94
2022-10-05T15:55:58.533Z,100974.38
2022-10-05T15:59:17.523Z,100974.00
2022-10-05T16:02:20.885Z,100974.38
2022-10-05T16:05:21.079Z,100962.75
2022-10-05T16:08:35.884Z,100950.28
2022-10-05T16:11:53.098Z,100942.19
2022-10-05T16:14:59.232Z,100926.72
2022-10-05T16:18:03.087Z,100924.84
2022-10-05T16:20:55.720Z,100925.69
2022-10-05T16:24:17.924Z,100931.47
2022-10-05T16:27:34.199Z,100935.63
2022-10-05T16:30:25.695Z,100927.75
2022-10-05T16:34:04.375Z,100928.13
2022-10-05T16:37:19.290Z,100934.81
2022-10-05T16:40:48.088Z,100942.25
2022-10-05T16:44:18.719Z,100945.69
2022-10-05T16:47:45.274Z,100939.53
2022-10-05T16:51:14.244Z,100946.41
2022-10-05T16:54:19.174Z,100933.63
2022-10-05T16:57:18.186Z,100931.66
2022-10-05T17:00:27.440Z,100932.31
2022-10-05T17:03:41.127Z,100940.25
2022-10-05T17:06:48.085Z,100937.25
2022-10-05T17:09:47.844Z,100939.28
2022-10-05T17:12:58.340Z,100945.88
2022-10-05T17:16:02.278Z,100940.47
2022-10-05T17:19:10.919Z,100933.78
2022-10-05T17:22:02.978Z,100934.34
2022-10-05T17:25:14.010Z,100931.81
2022-10-05T17:28:26.725Z,100933.31
2022-10-05T17:31:21.865Z,100931.16
2022-10-05T17:34:18.883Z,100926.78
2022-10-05T17:37:33.029Z,100926.41
2022-10-05T17:40:40.906Z,100910.59
2022-10-05T17:43:34.552Z,100910.28
2022-10-05T17:46:46.584Z,100907.44
2022-10-05T17:50:18.784Z,100897.00
2022-10-05T17:54:04.570Z,100897.97
2022-10-05T17:56:58.071Z,100907.13
2022-10-05T17:59:57.787Z,100897.00
2022-10-05T18:02:48.811Z,100893.81
2022-10-05T18:05:39.236Z,100899.41
2022-10-05T18:08:38.720Z,100898.56
2022-10-05T18:11:37.640Z,100895.22
2022-10-05T18:14:27.761Z,100901.63
2022-10-05T18:17:39.182Z,100896.88
2022-10-05T18:20:32.384Z,100898.47
2022-10-05T18:23:26.384Z,100900.97
2022-10-05T18:26:33.666Z,100891.84
2022-10-05T18:30:05.890Z,100903.00
2022-10-05T18:33:13.212Z,100895.56
2022-10-05T18:36:14.511Z,100906.72
2022-10-05T18:39:07.699Z,100910.16
2022-10-05T18:42:26.388Z,100909.13
2022-10-05T18:45:39.076Z,100905.78
2022-10-05T18:48:44.223Z,100906.44
2022-10-05T18:51:52.157Z,100904.06
2022-10-05T18:55:07.777Z,100902.06
2022-10-05T18:58:24.445Z,100899.38
2022-10-05T19:01:33.403Z,100895.13
2022-10-05T19:04:39.327Z,100900.72
2022-10-05T19:07:50.340Z,100906.47
2022-10-05T19:10:47.563Z,100897.38
2022-10-05T19:13:56.925Z,100894.38
2022-10-05T19:16:56.366Z,100890.66
2022-10-05T19:20:18.415Z,100883.59
2022-10-05T19:23:37.550Z,100875.81
2022-10-05T19:26:44.843Z,100884.59
2022-10-05T19:29:48.795Z,100890.00
2022-10-05T19:32:43.449Z,100899.25
2022-10-05T19:36:10.856Z,100892.84
2022-10-05T19:39:23.282Z,100888.84
2022-10-05T19:42:21.456Z,100894.22
2022-10-05T19:45:24.976Z,100886.34
2022-10-05T19:48:21.588Z,100897.13
2022-10-05T19:51:30.303Z,100896.75
2022-10-05T19:54:30.041Z,100896.47
2022-10-05T19:57:20.034Z,100893.09
2022-10-05T20:00:28.214Z,100895.78
2022-10-05T20:03:30.428Z,100897.47
2022-10-05T20:06:22.706Z,100899.50
2022-10-05T20:09:23.223Z,100897.47
2022-10-05T20:12:13.147Z,100902.56
2022-10-05T20:15:28.504Z,100897.84
2022-10-05T20:19:12.541Z,100901.19
2022-10-05T20:22:47.108Z,100907.75
2022-10-05T20:25:41.170Z,100909.31
2022-10-05T20:28:34.568Z,100909.31
2022-10-05T20:31:24.023Z,100899.56
2022-10-05T20:34:14.417Z,100886.09
2022-10-05T20:37:04.956Z,100877.34
2022-10-05T20:39:54.780Z,100877.34
2022-10-05T20:42:47.846Z,100869.44
2022-10-05T20:45:44.529Z,100865.25
2022-10-05T20:48:35.507Z,100874.34
2022-10-05T20:51:29.826Z,100891.16
2022-10-05T20:54:19.934Z,100891.16
2022-10-05T20:57:17.419Z,100894.22
2022-10-05T21:00:08.026Z,100916.59
2022-10-05T21:02:58.273Z,100919.13
2022-10-05T21:05:48.435Z,100924.66
2022-10-05T21:08:39.238Z,100930.59
2022-10-05T21:11:29.558Z,100942.69
2022-10-05T21:14:20.633Z,100939.34
2022-10-05T21:17:10.584Z,100935.63
2022-10-05T21:20:00.848Z,100934.31
2022-10-05T21:22:50.823Z,100935.47
2022-10-05T21:25:40.737Z,100934.81
2022-10-05T21:28:33.559Z,100934.00
2022-10-05T21:31:23.010Z,100933.34
2022-10-05T21:34:13.261Z,100939.88
2022-10-05T21:37:03.605Z,100946.97
2022-10-05T21:39:53.444Z,100933.34
2022-10-05T21:42:43.406Z,100936.38
2022-10-05T21:45:33.467Z,100941.91
2022-10-05T21:48:23.456Z,100945.28
2022-10-05T21:51:17.421Z,100943.44
2022-10-05T21:54:26.999Z,100947.47
2022-10-05T21:57:16.475Z,100959.59
2022-10-05T22:00:09.285Z,100966.00
2022-10-05T22:03:00.099Z,100968.84
2022-10-05T22:05:49.926Z,100973.72
2022-10-05T22:08:40.166Z,100971.69
2022-10-05T22:11:30.351Z,100968.34
2022-10-05T22:14:19.803Z,100977.09
2022-10-05T22:17:28.889Z,100982.16
2022-10-05T22:20:21.255Z,100980.13
2022-10-05T22:23:11.148Z,100981.13
2022-10-05T22:26:01.954Z,100991.91
2022-10-05T22:28:56.045Z,100994.13
2022-10-05T22:31:49.546Z,100984.19
2022-10-05T22:34:39.061Z,100988.91
2022-10-05T22:37:28.517Z,100993.25
2022-10-05T22:40:17.955Z,100997.81
2022-10-05T22:43:08.554Z,100994.94
2022-10-05T22:45:58.466Z,100991.25
2022-10-05T22:48:48.138Z,100995.63
2022-10-05T22:51:40.841Z,100999.16
2022-10-05T22:54:32.510Z,101000.34
2022-10-05T22:57:24.464Z,101003.03
2022-10-05T23:00:18.286Z,101004.88
2022-10-05T23:03:08.793Z,101011.78
2022-10-05T23:06:06.165Z,101010.22
2022-10-05T23:08:56.621Z,101013.63
2022-10-05T23:11:48.887Z,101014.78
2022-10-05T23:14:38.179Z,101026.56
2022-10-05T23:17:27.979Z,101031.09
2022-10-05T23:20:17.667Z,101041.06
2022-10-05T23:23:07.179Z,101032.63
2022-10-05T23:26:03.914Z,101042.03
2022-10-05T23:28:54.034Z,101038.31
2022-10-05T23:31:45.357Z,101047.56
2022-10-05T23:34:37.331Z,101059.16
2022-10-05T23:37:29.300Z,101066.25
2022-10-05T23:40:19.395Z,101061.88
2022-10-05T23:43:08.876Z,101076.00
2022-10-05T23:45:59.341Z,101077.69
2022-10-05T23:48:51.187Z,101075.31
2022-10-05T23:51:46.859Z,101073.94
2022-10-05T23:54:37.657Z,101080.00
2022-10-05T23:57:27.663Z,101069.69
